createdAt,value
2019-05-20T00:01:13.442Z,45.95
2019-05-20T00:03:41.621Z,53.85
2019-05-20T00:06:10.000Z,50.05
2019-05-20T00:08:38.355Z,48.90
2019-05-20T00:11:06.510Z,50.57
2019-05-20T00:13:35.437Z,56.10
2019-05-20T00:16:03.516Z,58.47
2019-05-20T00:18:33.245Z,57.73
2019-05-20T00:21:01.458Z,57.93
2019-05-20T00:23:30.742Z,57.67
2019-05-20T00:25:58.854Z,64.30
2019-05-20T00:28:26.997Z,60.90
2019-05-20T00:30:55.197Z,61.50
2019-05-20T00:33:24.998Z,59.03
2019-05-20T00:35:53.322Z,55.43
2019-05-20T00:38:21.414Z,57.53
2019-05-20T00:40:49.568Z,60.08
2019-05-20T00:43:17.741Z,64.95
2019-05-20T00:45:46.997Z,66.97
2019-05-20T00:48:15.117Z,69.97
2019-05-20T00:50:43.360Z,66.10
2019-05-20T00:53:11.585Z,61.40
2019-05-20T00:55:40.129Z,75.72
2019-05-20T00:58:08.320Z,71.70
2019-05-20T01:00:36.774Z,63.73
2019-05-20T01:03:04.982Z,73.57
2019-05-20T01:05:33.159Z,71.72
2019-05-20T01:08:01.291Z,66.35
2019-05-20T01:10:29.374Z,74.17
2019-05-20T01:12:57.518Z,70.87
2019-05-20T01:15:27.290Z,94.30
2019-05-20T01:17:55.558Z,70.47
2019-05-20T01:20:23.809Z,74.30
2019-05-20T01:22:52.087Z,68.50
2019-05-20T01:25:21.278Z,70.03
2019-05-20T01:27:49.423Z,74.58
2019-05-20T01:30:17.967Z,85.53
2019-05-20T01:32:46.346Z,70.57
2019-05-20T01:35:14.581Z,70.32
2019-05-20T01:37:42.813Z,79.80
2019-05-20T01:40:12.143Z,67.97
2019-05-20T01:42:40.281Z,69.37
2019-05-20T01:45:09.716Z,69.72
2019-05-20T01:47:37.919Z,75.30
2019-05-20T01:50:06.268Z,75.03
2019-05-20T01:52:34.424Z,72.00
2019-05-20T01:55:05.393Z,72.65
2019-05-20T01:57:33.593Z,79.40
2019-05-20T02:00:01.704Z,81.53
2019-05-20T02:02:31.781Z,88.00
2019-05-20T02:04:59.931Z,88.07
2019-05-20T02:07:28.119Z,88.50
2019-05-20T02:09:56.281Z,79.25
2019-05-20T02:12:24.414Z,73.47
2019-05-20T02:14:54.219Z,79.90
2019-05-20T02:17:22.341Z,84.85
2019-05-20T02:19:50.434Z,81.20
2019-05-20T02:22:18.674Z,73.60
2019-05-20T02:24:46.798Z,77.25
2019-05-20T02:27:14.896Z,76.90
2019-05-20T02:29:44.547Z,82.62
2019-05-20T02:32:12.643Z,75.17
2019-05-20T02:34:40.840Z,82.05
2019-05-20T02:37:09.131Z,77.25
2019-05-20T02:39:37.270Z,82.10
2019-05-20T02:42:05.525Z,87.62
2019-05-20T02:44:33.737Z,78.45
2019-05-20T02:47:01.912Z,75.40
2019-05-20T02:49:30.112Z,75.00
2019-05-20T02:51:58.279Z,70.40
2019-05-20T02:54:26.563Z,73.92
2019-05-20T02:56:54.758Z,68.33
2019-05-20T02:59:23.237Z,72.45
2019-05-20T03:01:51.428Z,71.93
2019-05-20T03:04:19.550Z,65.90
2019-05-20T03:06:47.657Z,61.45
2019-05-20T03:09:16.840Z,62.60
2019-05-20T03:11:44.923Z,62.48
2019-05-20T03:14:13.119Z,65.60
2019-05-20T03:16:41.226Z,61.88
2019-05-20T03:19:09.396Z,62.67
2019-05-20T03:21:37.506Z,63.85
2019-05-20T03:24:06.448Z,62.93
2019-05-20T03:26:34.647Z,58.92
2019-05-20T03:29:02.826Z,60.87
2019-05-20T03:31:31.004Z,58.53
2019-05-20T03:33:59.127Z,55.90
2019-05-20T03:36:27.291Z,59.83
2019-05-20T03:38:55.375Z,57.48
2019-05-20T03:41:23.506Z,56.28
2019-05-20T03:43:51.618Z,54.58
2019-05-20T03:46:19.768Z,55.45
2019-05-20T03:48:47.952Z,52.80
2019-05-20T03:51:16.110Z,55.17
2019-05-20T03:53:44.264Z,46.67
2019-05-20T03:56:12.477Z,54.13
2019-05-20T03:58:40.639Z,49.67
2019-05-20T04:01:08.848Z,49.13
2019-05-20T04:03:36.969Z,45.23
2019-05-20T04:06:05.202Z,54.73
2019-05-20T04:08:34.284Z,42.48
2019-05-20T04:11:02.465Z,41.90
2019-05-20T04:13:34.678Z,43.80
2019-05-20T04:16:01.389Z,43.28
2019-05-20T04:18:29.827Z,43.38
2019-05-20T04:20:58.132Z,45.60
2019-05-20T04:23:26.352Z,41.02
2019-05-20T04:25:54.597Z,43.33
2019-05-20T04:28:22.809Z,44.60
2019-05-20T04:30:51.665Z,40.90
2019-05-20T04:33:19.768Z,43.70
2019-05-20T04:35:49.886Z,44.30
2019-05-20T04:38:17.746Z,45.23
2019-05-20T04:40:45.884Z,41.48
2019-05-20T04:43:14.068Z,39.07
2019-05-20T04:45:42.344Z,39.00
2019-05-20T04:48:13.733Z,36.73
2019-05-20T04:50:40.378Z,36.48
2019-05-20T04:53:08.501Z,36.85
2019-05-20T04:55:36.716Z,34.33
2019-05-20T04:58:04.915Z,33.88
2019-05-20T05:00:49.533Z,32.70
2019-05-20T05:03:18.846Z,33.58
2019-05-20T05:05:47.497Z,32.38
2019-05-20T05:08:15.683Z,33.18
2019-05-20T05:10:43.872Z,32.00
2019-05-20T05:13:12.408Z,33.70
2019-05-20T05:15:40.601Z,35.17
2019-05-20T05:18:08.827Z,33.85
2019-05-20T05:20:37.067Z,34.85
2019-05-20T05:23:05.333Z,33.80
2019-05-20T05:25:35.061Z,34.00
2019-05-20T05:28:03.345Z,41.92
2019-05-20T05:30:31.667Z,37.35
2019-05-20T05:32:59.836Z,40.07
2019-05-20T05:35:28.085Z,37.25
2019-05-20T05:37:56.256Z,37.55
2019-05-20T05:40:25.989Z,36.05
2019-05-20T05:42:54.120Z,34.98
2019-05-20T05:45:23.939Z,37.23
2019-05-20T05:47:52.166Z,38.60
2019-05-20T05:50:20.325Z,43.10
2019-05-20T05:52:48.568Z,38.10
2019-05-20T05:55:16.946Z,38.92
2019-05-20T05:57:45.172Z,41.73
2019-05-20T06:00:13.475Z,37.08
2019-05-20T06:02:43.475Z,39.48
2019-05-20T06:05:11.709Z,42.95
2019-05-20T06:07:41.359Z,38.63
2019-05-20T06:10:09.694Z,44.67
2019-05-20T06:12:37.969Z,42.58
2019-05-20T06:15:10.369Z,41.63
2019-05-20T06:17:38.934Z,42.90
2019-05-20T06:20:07.494Z,53.45
2019-05-20T06:22:35.760Z,42.15
2019-05-20T06:27:22.839Z,47.13
2019-05-20T06:29:51.042Z,47.40
2019-05-20T06:32:19.229Z,47.90
2019-05-20T06:34:47.332Z,50.58
2019-05-20T06:37:17.227Z,46.68
2019-05-20T06:39:45.410Z,44.67
2019-05-20T06:42:13.544Z,47.78
2019-05-20T06:44:52.397Z,44.67
2019-05-20T06:47:11.479Z,43.05
2019-05-20T06:49:39.736Z,44.08
2019-05-20T06:52:07.953Z,47.17
2019-05-20T06:54:36.123Z,44.13
2019-05-20T06:57:04.318Z,43.73
2019-05-20T06:59:32.424Z,44.25
2019-05-20T07:02:00.617Z,43.70
2019-05-20T07:04:28.912Z,44.45
2019-05-20T07:06:57.107Z,44.67
2019-05-20T07:09:25.259Z,42.17
2019-05-20T07:11:53.381Z,45.00
2019-05-20T07:14:21.526Z,39.33
2019-05-20T07:16:50.704Z,46.10
2019-05-20T07:19:18.914Z,41.42
2019-05-20T07:21:47.040Z,41.40
2019-05-20T07:24:15.270Z,41.00
2019-05-20T07:26:43.426Z,42.57
2019-05-20T07:29:11.535Z,42.78
2019-05-20T07:31:39.640Z,43.40
2019-05-20T07:34:07.843Z,42.03
2019-05-20T07:36:36.030Z,38.90
2019-05-20T07:39:05.179Z,41.90
2019-05-20T07:41:33.346Z,40.85
2019-05-20T07:44:01.517Z,40.03
2019-05-20T07:46:29.827Z,45.20
2019-05-20T07:48:58.417Z,47.50
2019-05-20T07:51:26.914Z,46.18
2019-05-20T07:53:55.467Z,44.70
2019-05-20T07:56:25.170Z,48.13
2019-05-20T07:58:54.889Z,46.02
2019-05-20T08:01:22.958Z,44.90
2019-05-20T08:03:51.165Z,45.73
2019-05-20T08:06:19.376Z,45.98
2019-05-20T08:08:47.586Z,46.92
2019-05-20T08:11:15.691Z,44.00
2019-05-20T08:13:43.887Z,40.50
2019-05-20T08:16:12.102Z,43.28
2019-05-20T08:18:41.355Z,42.23
2019-05-20T08:21:10.649Z,39.98
2019-05-20T08:23:38.807Z,40.73
2019-05-20T08:26:06.948Z,40.45
2019-05-20T08:28:35.081Z,39.88
2019-05-20T08:31:03.176Z,39.63
2019-05-20T08:33:31.348Z,39.42
2019-05-20T08:35:59.520Z,40.47
2019-05-20T08:38:27.695Z,47.83
2019-05-20T08:40:55.864Z,43.48
2019-05-20T08:43:24.033Z,44.77
2019-05-20T08:45:52.209Z,43.50
2019-05-20T08:48:21.927Z,42.13
2019-05-20T08:50:50.309Z,46.28
2019-05-20T08:53:18.491Z,49.75
2019-05-20T08:55:46.700Z,43.13
2019-05-20T08:58:14.843Z,42.33
2019-05-20T09:00:42.991Z,45.27
2019-05-20T09:03:11.182Z,44.83
2019-05-20T09:05:39.542Z,41.33
2019-05-20T09:08:07.871Z,38.63
2019-05-20T09:10:39.287Z,39.30
2019-05-20T09:13:05.912Z,31.65
2019-05-20T09:15:33.985Z,30.43
2019-05-20T09:18:02.182Z,28.47
2019-05-20T09:20:30.457Z,31.50
2019-05-20T09:23:02.720Z,31.87
2019-05-20T09:25:30.498Z,30.52
2019-05-20T09:27:59.043Z,29.97
2019-05-20T09:30:27.217Z,32.83
2019-05-20T09:32:55.488Z,32.95
2019-05-20T09:35:23.636Z,33.73
2019-05-20T09:37:51.816Z,34.67
2019-05-20T09:40:39.662Z,33.35
2019-05-20T09:43:08.096Z,31.00
2019-05-20T09:45:36.544Z,30.10
2019-05-20T09:48:05.337Z,29.07
2019-05-20T09:50:33.591Z,32.77
2019-05-20T09:53:06.574Z,33.70
2019-05-20T09:55:31.577Z,32.53
2019-05-20T09:58:01.386Z,32.20
2019-05-20T10:00:29.844Z,30.23
2019-05-20T10:02:58.225Z,29.63
2019-05-20T10:05:26.604Z,31.70
2019-05-20T10:07:54.705Z,30.85
2019-05-20T10:10:23.062Z,31.10
2019-05-20T10:12:52.259Z,29.37
2019-05-20T10:15:20.726Z,29.00
2019-05-20T10:17:48.931Z,29.60
2019-05-20T10:20:18.214Z,29.00
2019-05-20T10:22:46.376Z,28.95
2019-05-20T10:25:16.268Z,29.18
2019-05-20T10:27:44.581Z,29.27
2019-05-20T10:30:13.225Z,25.48
2019-05-20T10:32:41.354Z,25.20
2019-05-20T10:35:09.669Z,25.92
2019-05-20T10:37:37.911Z,25.00
2019-05-20T10:40:06.171Z,23.20
2019-05-20T10:42:35.263Z,26.35
2019-05-20T10:45:03.667Z,25.45
2019-05-20T10:47:32.044Z,25.17
2019-05-20T10:50:00.249Z,23.47
2019-05-20T10:52:28.541Z,23.12
2019-05-20T10:54:56.702Z,21.15
2019-05-20T10:57:24.837Z,19.73
2019-05-20T10:59:53.066Z,19.82
2019-05-20T11:02:21.452Z,20.60
2019-05-20T11:04:49.617Z,20.23
2019-05-20T11:07:17.798Z,21.07
2019-05-20T11:09:45.893Z,21.40
2019-05-20T11:12:14.054Z,21.60
2019-05-20T11:14:42.147Z,22.10
2019-05-20T11:17:10.408Z,24.17
2019-05-20T11:19:38.506Z,24.53
2019-05-20T11:22:06.704Z,24.73
2019-05-20T11:24:34.858Z,25.90
2019-05-20T11:27:03.722Z,25.83
2019-05-20T11:29:31.899Z,26.27
2019-05-20T11:32:01.632Z,27.67
2019-05-20T11:34:29.845Z,27.17
2019-05-20T11:36:58.033Z,29.30
2019-05-20T11:39:33.464Z,31.45
2019-05-20T11:41:55.967Z,36.95
2019-05-20T11:44:24.112Z,39.00
2019-05-20T11:46:52.865Z,39.80
2019-05-20T11:49:21.036Z,39.10
2019-05-20T11:51:49.266Z,43.13
2019-05-20T11:54:17.356Z,38.67
2019-05-20T11:56:45.489Z,38.47
2019-05-20T11:59:13.711Z,35.80
2019-05-20T12:01:41.865Z,36.40
2019-05-20T12:04:10.085Z,40.37
2019-05-20T12:06:38.481Z,41.45
2019-05-20T12:09:06.753Z,42.53
2019-05-20T12:11:35.005Z,43.05
2019-05-20T12:14:03.160Z,43.45
2019-05-20T12:16:31.357Z,45.17
2019-05-20T12:18:59.517Z,40.48
2019-05-20T12:21:27.643Z,44.55
2019-05-20T12:23:55.728Z,43.87
2019-05-20T12:26:23.860Z,42.70
2019-05-20T12:28:51.952Z,44.80
2019-05-20T12:31:21.122Z,41.15
2019-05-20T12:33:49.293Z,39.88
2019-05-20T12:36:17.425Z,40.60
2019-05-20T12:38:45.526Z,38.23
2019-05-20T12:41:13.699Z,39.10
2019-05-20T12:43:44.697Z,38.73
2019-05-20T12:46:11.676Z,39.67
2019-05-20T12:48:39.926Z,35.58
2019-05-20T12:51:08.086Z,36.53
2019-05-20T12:53:36.270Z,35.98
2019-05-20T12:56:04.425Z,37.40
2019-05-20T12:58:32.652Z,40.10
2019-05-20T13:01:00.777Z,39.00
2019-05-20T13:03:28.955Z,38.60
2019-05-20T13:05:57.229Z,35.57
2019-05-20T13:08:25.467Z,36.73
2019-05-20T13:10:53.667Z,36.60
2019-05-20T13:13:21.852Z,33.38
2019-05-20T13:15:50.042Z,38.08
2019-05-20T13:18:18.254Z,38.08
2019-05-20T13:20:46.512Z,41.25
2019-05-20T13:23:17.471Z,39.27
2019-05-20T13:25:46.754Z,40.17
2019-05-20T13:28:14.917Z,37.70
2019-05-20T13:30:43.094Z,39.73
2019-05-20T13:33:11.257Z,39.10
2019-05-20T13:35:39.417Z,37.48
2019-05-20T13:38:07.613Z,38.58
2019-05-20T13:40:45.843Z,35.80
2019-05-20T13:43:05.483Z,37.45
2019-05-20T13:45:33.660Z,34.70
2019-05-20T13:48:01.741Z,35.08
2019-05-20T13:50:29.851Z,33.83
2019-05-20T13:52:58.043Z,28.62
2019-05-20T13:55:26.133Z,27.50
2019-05-20T13:57:54.212Z,25.50
2019-05-20T14:00:22.608Z,22.85
2019-05-20T14:02:51.366Z,22.87
2019-05-20T14:05:19.566Z,23.92
2019-05-20T14:07:47.721Z,24.40
2019-05-20T14:10:15.999Z,24.40
2019-05-20T14:12:44.075Z,24.63
2019-05-20T14:15:12.274Z,30.00
2019-05-20T14:17:40.434Z,32.33
2019-05-20T14:20:08.781Z,29.60
2019-05-20T14:22:36.873Z,30.02
2019-05-20T14:25:06.586Z,28.23
2019-05-20T14:27:36.305Z,25.27
2019-05-20T14:30:08.022Z,23.20
2019-05-20T14:32:36.203Z,22.42
2019-05-20T14:35:07.533Z,22.95
2019-05-20T14:37:35.714Z,19.60
2019-05-20T14:40:05.452Z,19.12
2019-05-20T14:42:36.649Z,19.45
2019-05-20T14:45:06.402Z,21.95
2019-05-20T14:47:34.486Z,21.25
2019-05-20T14:50:02.917Z,22.62
2019-05-20T14:52:31.432Z,23.45
2019-05-20T14:54:59.558Z,23.83
2019-05-20T14:57:27.725Z,23.27
2019-05-20T14:59:55.959Z,23.87
2019-05-20T15:02:24.151Z,22.70
2019-05-20T15:04:52.424Z,22.60
2019-05-20T15:07:30.307Z,24.37
2019-05-20T15:09:51.103Z,25.60
2019-05-20T15:12:19.266Z,28.75
2019-05-20T15:14:47.464Z,28.92
2019-05-20T15:17:15.673Z,34.45
2019-05-20T15:19:43.916Z,35.38
2019-05-20T15:22:12.051Z,36.53
2019-05-20T15:24:40.250Z,39.80
2019-05-20T15:27:08.446Z,41.95
2019-05-20T15:29:36.600Z,44.53
2019-05-20T15:32:04.780Z,46.88
2019-05-20T15:34:32.911Z,49.55
2019-05-20T15:37:01.048Z,48.50
2019-05-20T15:39:29.310Z,49.90
2019-05-20T15:41:57.568Z,51.23
2019-05-20T15:44:25.812Z,51.70
2019-05-20T15:46:54.464Z,50.60
2019-05-20T15:49:25.681Z,50.30
2019-05-20T15:51:53.834Z,51.08
2019-05-20T15:54:21.987Z,49.13
2019-05-20T15:56:51.325Z,45.17
2019-05-20T15:59:19.454Z,44.90
2019-05-20T16:01:48.612Z,45.00
2019-05-20T16:04:16.802Z,49.00
2019-05-20T16:06:44.980Z,45.63
2019-05-20T16:09:17.037Z,46.18
2019-05-20T16:11:42.931Z,44.35
2019-05-20T16:14:11.036Z,44.08
2019-05-20T16:16:39.211Z,41.92
2019-05-20T16:19:07.396Z,42.75
2019-05-20T16:21:35.593Z,39.30
2019-05-20T16:24:03.836Z,39.08
2019-05-20T16:26:31.997Z,39.03
2019-05-20T16:29:00.187Z,41.07
2019-05-20T16:31:28.397Z,34.83
2019-05-20T16:33:59.497Z,35.17
2019-05-20T16:36:26.451Z,34.33
2019-05-20T16:38:54.738Z,32.95
2019-05-20T16:41:22.951Z,32.08
2019-05-20T16:43:51.311Z,30.95
2019-05-20T16:46:19.906Z,33.05
2019-05-20T16:48:48.078Z,34.80
2019-05-20T16:51:16.311Z,33.55
2019-05-20T16:53:44.544Z,33.45
2019-05-20T16:56:12.739Z,34.67
2019-05-20T16:58:41.658Z,37.77
2019-05-20T17:01:09.825Z,35.95
2019-05-20T17:03:37.945Z,40.17
2019-05-20T17:06:06.241Z,38.65
2019-05-20T17:08:34.527Z,40.17
2019-05-20T17:11:02.846Z,40.05
2019-05-20T17:13:31.026Z,40.12
2019-05-20T17:15:59.159Z,41.48
2019-05-20T17:18:27.319Z,37.47
2019-05-20T17:20:55.548Z,41.23
2019-05-20T17:23:23.647Z,36.60
2019-05-20T17:25:51.893Z,38.42
2019-05-20T17:28:20.055Z,38.90
2019-05-20T17:30:48.378Z,35.88
2019-05-20T17:33:16.503Z,40.03
2019-05-20T17:35:44.714Z,35.43
2019-05-20T17:38:15.975Z,33.85
2019-05-20T17:40:44.277Z,35.48
2019-05-20T17:43:12.511Z,33.53
2019-05-20T17:45:40.861Z,35.55
2019-05-20T17:48:10.753Z,32.88
2019-05-20T17:50:38.968Z,34.87
2019-05-20T17:53:07.830Z,33.30
2019-05-20T17:55:38.729Z,34.88
2019-05-20T17:58:07.908Z,34.10
2019-05-20T18:00:37.340Z,33.25
2019-05-20T18:03:06.654Z,32.67
2019-05-20T18:05:34.748Z,29.85
2019-05-20T18:08:03.029Z,31.45
2019-05-20T18:10:31.211Z,29.72
2019-05-20T18:12:59.385Z,30.57
2019-05-20T18:15:28.909Z,29.70
2019-05-20T18:17:58.796Z,35.50
2019-05-20T18:20:32.348Z,35.13
2019-05-20T18:23:00.850Z,30.10
2019-05-20T18:25:29.035Z,29.60
2019-05-20T18:27:58.355Z,28.12
2019-05-20T18:30:26.620Z,31.35
2019-05-20T18:32:54.765Z,29.63
2019-05-20T18:35:23.052Z,32.03
2019-05-20T18:37:51.266Z,29.80
2019-05-20T18:40:19.553Z,30.77
2019-05-20T18:42:47.718Z,27.55
2019-05-20T18:45:15.881Z,28.17
2019-05-20T18:47:44.093Z,28.43
2019-05-20T18:50:12.648Z,30.20
2019-05-20T18:52:40.839Z,30.20
2019-05-20T18:55:09.093Z,31.97
2019-05-20T18:57:37.237Z,30.30
2019-05-20T19:00:07.727Z,28.52
2019-05-20T19:02:37.732Z,28.07
2019-05-20T19:05:07.166Z,28.50
2019-05-20T19:07:35.400Z,29.35
2019-05-20T19:10:04.382Z,30.27
2019-05-20T19:12:32.478Z,30.65
2019-05-20T19:15:00.708Z,24.47
2019-05-20T19:17:28.979Z,27.22
2019-05-20T19:19:57.146Z,26.75
2019-05-20T19:22:25.297Z,24.43
2019-05-20T19:24:53.711Z,23.00
2019-05-20T19:27:21.887Z,26.95
2019-05-20T19:29:50.946Z,25.25
2019-05-20T19:32:20.795Z,27.85
2019-05-20T19:34:48.993Z,25.97
2019-05-20T19:37:17.247Z,29.70
2019-05-20T19:39:45.501Z,28.15
2019-05-20T19:42:13.707Z,28.07
2019-05-20T19:44:43.424Z,26.00
2019-05-20T19:47:11.664Z,25.60
2019-05-20T19:49:42.544Z,25.90
2019-05-20T19:52:11.980Z,27.32
2019-05-20T19:54:41.850Z,28.25
2019-05-20T19:57:14.529Z,26.42
2019-05-20T19:59:43.524Z,26.25
2019-05-20T20:02:17.393Z,27.33
2019-05-20T20:04:47.820Z,26.62
2019-05-20T20:07:19.078Z,30.72
2019-05-20T20:09:47.342Z,34.08
2019-05-20T20:12:15.538Z,32.03
2019-05-20T20:14:43.731Z,34.65
2019-05-20T20:17:11.805Z,38.30
2019-05-20T20:19:42.997Z,34.58
2019-05-20T20:22:12.042Z,40.10
2019-05-20T20:24:41.823Z,44.93
2019-05-20T20:27:10.009Z,40.00
2019-05-20T20:29:38.196Z,39.70
2019-05-20T20:32:06.332Z,39.98
2019-05-20T20:34:34.447Z,36.50
2019-05-20T20:37:05.497Z,34.48
2019-05-20T20:39:36.752Z,35.13
2019-05-20T20:42:05.018Z,36.95
2019-05-20T20:44:33.195Z,33.58
2019-05-20T20:47:02.908Z,36.30
2019-05-20T20:49:31.131Z,40.75
2019-05-20T20:51:59.315Z,39.87
2019-05-20T20:54:27.525Z,37.93
2019-05-20T20:56:55.692Z,36.80
2019-05-20T20:59:23.836Z,36.90
2019-05-20T21:01:54.612Z,36.13
2019-05-20T21:04:21.869Z,39.38
2019-05-20T21:06:50.014Z,39.18
2019-05-20T21:09:18.210Z,40.52
2019-05-20T21:11:46.444Z,41.70
2019-05-20T21:14:15.792Z,39.13
2019-05-20T21:16:43.990Z,38.30
2019-05-20T21:19:15.021Z,39.33
2019-05-20T21:21:43.134Z,39.63
2019-05-20T21:24:11.460Z,35.17
2019-05-20T21:26:40.695Z,35.07
2019-05-20T21:29:08.831Z,39.58
2019-05-20T21:31:36.996Z,38.23
2019-05-20T21:34:05.186Z,36.35
2019-05-20T21:36:46.577Z,33.08
2019-05-20T21:39:04.446Z,35.58
2019-05-20T21:41:34.110Z,36.88
2019-05-20T21:44:04.099Z,35.40
2019-05-20T21:46:32.730Z,36.25
2019-05-20T21:49:00.881Z,38.83
2019-05-20T21:51:29.143Z,37.30
2019-05-20T21:53:57.273Z,35.98
2019-05-20T21:56:26.619Z,33.78
2019-05-20T21:58:54.720Z,37.57
2019-05-20T22:01:22.827Z,35.83
2019-05-20T22:03:54.148Z,32.25
2019-05-20T22:06:22.244Z,35.85
2019-05-20T22:08:50.445Z,33.60
2019-05-20T22:11:18.525Z,33.67
2019-05-20T22:13:46.657Z,34.25
2019-05-20T22:16:15.601Z,33.70
2019-05-20T22:18:44.658Z,37.05
2019-05-20T22:21:14.856Z,31.23
2019-05-20T22:23:44.707Z,32.88
2019-05-20T22:26:12.875Z,31.80
2019-05-20T22:28:40.967Z,34.98
2019-05-20T22:31:09.183Z,31.33
2019-05-20T22:33:41.954Z,32.33
2019-05-20T22:36:07.439Z,30.40
2019-05-20T22:38:35.563Z,25.97
2019-05-20T22:41:03.698Z,25.20
2019-05-20T22:43:31.899Z,25.40
2019-05-20T22:46:00.111Z,22.93
2019-05-20T22:48:28.278Z,21.77
2019-05-20T22:50:56.446Z,20.82
2019-05-20T22:53:24.672Z,20.88
2019-05-20T22:55:52.828Z,21.62
2019-05-20T22:58:22.418Z,21.37
2019-05-20T23:00:50.582Z,21.80
2019-05-20T23:03:18.867Z,21.85
2019-05-20T23:05:47.112Z,22.20
2019-05-20T23:08:15.238Z,23.18
2019-05-20T23:10:43.415Z,24.18
2019-05-20T23:13:11.619Z,24.72
2019-05-20T23:15:39.796Z,27.15
2019-05-20T23:18:07.986Z,27.55
2019-05-20T23:20:36.147Z,31.00
2019-05-20T23:23:04.351Z,28.47
2019-05-20T23:25:32.516Z,30.72
2019-05-20T23:28:00.757Z,28.02
2019-05-20T23:30:28.911Z,28.27
2019-05-20T23:32:57.182Z,28.40
2019-05-20T23:35:25.342Z,27.55
2019-05-20T23:37:54.754Z,28.57
2019-05-20T23:40:22.906Z,28.70
2019-05-20T23:42:51.162Z,26.37
2019-05-20T23:45:19.319Z,26.35
2019-05-20T23:47:47.442Z,27.35
2019-05-20T23:50:15.642Z,27.02
2019-05-20T23:52:44.412Z,28.42
2019-05-20T23:55:12.640Z,27.87
2019-05-20T23:57:40.807Z,28.38
